< < Back
Terminal Aerodrome Forecast


Current Version              Previous Versions:   1  2  3  4  5  6  7  8  9  

Terminal Aerodrome Forecast

924
FTUS44 KBMX 041120
TAFANB
TAF
KANB 041120Z 0412/0512 26005KT P6SM FEW250
     FM041500 28010KT P6SM SKC
     FM041800 27015G25KT P6SM SCT250
     FM042100 28010KT P6SM SHRA BKN050
     FM050600 30007G12KT P6SM FEW250=

Latest METAR

311
SAUS70 KWBC 051756
MTRANB
METAR KANB 051753Z AUTO 28012G19KT 10SM BKN060 BKN080 18/03 A2983 RMK
AO2 SLP100 T01830033 10189 20117 58013


USA.gov is the U.S. government's official web portal to all federal, state and local government web resources and services.